createdAt,value
2022-09-28T00:01:06.676Z,7.36
2022-09-28T00:03:34.921Z,7.34
2022-09-28T00:06:04.014Z,7.30
2022-09-28T00:08:32.210Z,7.31
2022-09-28T00:11:00.708Z,7.27
2022-09-28T00:13:29.531Z,7.21
2022-09-28T00:16:03.765Z,7.19
2022-09-28T00:18:32.317Z,7.21
2022-09-28T00:21:04.812Z,7.22
2022-09-28T00:23:33.237Z,7.19
2022-09-28T00:26:04.603Z,7.21
2022-09-28T00:28:32.858Z,7.23
2022-09-28T00:31:03.250Z,7.23
2022-09-28T00:33:31.499Z,7.22
2022-09-28T00:35:59.986Z,7.22
2022-09-28T00:38:29.503Z,7.16
2022-09-28T00:40:57.972Z,7.15
2022-09-28T00:43:26.465Z,7.13
2022-09-28T00:45:58.275Z,7.10
2022-09-28T00:48:28.877Z,7.09
2022-09-28T00:50:57.605Z,7.06
2022-09-28T00:53:26.745Z,7.10
2022-09-28T00:55:55.856Z,7.02
2022-09-28T00:58:25.573Z,7.01
2022-09-28T01:00:53.845Z,6.95
2022-09-28T01:03:22.340Z,6.89
2022-09-28T01:05:52.153Z,6.88
2022-09-28T01:08:21.253Z,6.87
2022-09-28T01:10:50.833Z,6.88
2022-09-28T01:13:21.020Z,6.81
2022-09-28T01:15:53.562Z,6.79
2022-09-28T01:18:26.812Z,6.76
2022-09-28T01:21:02.541Z,6.75
2022-09-28T01:23:44.861Z,6.66
2022-09-28T01:26:33.541Z,6.63
2022-09-28T01:29:04.651Z,6.59
2022-09-28T01:31:34.202Z,6.52
2022-09-28T01:34:05.246Z,6.51
2022-09-28T01:36:36.749Z,6.47
2022-09-28T01:39:07.391Z,6.47
2022-09-28T01:41:38.174Z,6.47
2022-09-28T01:44:06.448Z,6.43
2022-09-28T01:46:35.746Z,6.42
2022-09-28T01:49:07.367Z,6.40
2022-09-28T01:51:38.005Z,6.33
2022-09-28T01:54:08.026Z,6.33
2022-09-28T01:56:39.177Z,6.34
2022-09-28T01:59:08.830Z,6.40
2022-09-28T02:01:38.740Z,6.40
2022-09-28T02:04:09.233Z,6.38
2022-09-28T02:06:38.941Z,6.34
2022-09-28T02:09:09.913Z,6.36
2022-09-28T02:11:46.377Z,6.39
2022-09-28T02:14:15.281Z,6.38
2022-09-28T02:16:46.596Z,6.36
2022-09-28T02:19:15.903Z,6.34
2022-09-28T02:21:45.127Z,6.33
2022-09-28T02:24:21.217Z,6.36
2022-09-28T02:26:52.946Z,6.31
2022-09-28T02:29:21.744Z,6.26
2022-09-28T02:31:50.405Z,6.26
2022-09-28T02:34:18.728Z,6.23
2022-09-28T02:36:47.700Z,6.26
2022-09-28T02:39:17.029Z,6.27
2022-09-28T02:41:52.874Z,6.36
2022-09-28T02:44:33.063Z,6.33
2022-09-28T02:47:01.780Z,6.33
2022-09-28T02:49:39.396Z,6.32
2022-09-28T02:52:20.414Z,6.31
2022-09-28T02:55:21.199Z,6.26
2022-09-28T02:57:58.482Z,6.28
2022-09-28T03:00:28.429Z,6.34
2022-09-28T03:03:01.687Z,6.34
2022-09-28T03:05:34.375Z,6.34
2022-09-28T03:08:03.337Z,6.32
2022-09-28T03:10:35.213Z,6.37
2022-09-28T03:13:03.450Z,6.32
2022-09-28T03:15:33.938Z,6.24
2022-09-28T03:18:02.449Z,6.29
2022-09-28T03:20:31.579Z,6.29
2022-09-28T03:23:23.304Z,6.28
2022-09-28T03:25:48.675Z,6.30
2022-09-28T03:28:17.304Z,6.28
2022-09-28T03:30:47.042Z,6.32
2022-09-28T03:33:15.634Z,6.36
2022-09-28T03:35:45.940Z,6.35
2022-09-28T03:38:14.246Z,6.31
2022-09-28T03:40:43.780Z,6.36
2022-09-28T03:43:12.027Z,6.34
2022-09-28T03:45:40.790Z,6.40
2022-09-28T03:48:10.441Z,6.42
2022-09-28T03:50:38.916Z,6.41
2022-09-28T03:53:07.139Z,6.34
2022-09-28T03:55:35.429Z,6.33
2022-09-28T03:58:03.809Z,6.34
2022-09-28T04:00:32.077Z,6.37
2022-09-28T04:03:00.310Z,6.33
2022-09-28T04:05:30.782Z,6.33
2022-09-28T04:07:59.423Z,6.35
2022-09-28T04:10:28.422Z,6.36
2022-09-28T04:12:56.914Z,6.34
2022-09-28T04:15:25.057Z,6.37
2022-09-28T04:17:53.627Z,6.33
2022-09-28T04:20:48.114Z,6.40
2022-09-28T04:23:16.456Z,6.41
2022-09-28T04:25:48.701Z,6.45
2022-09-28T04:28:34.182Z,6.42
2022-09-28T04:31:02.390Z,6.44
2022-09-28T04:33:30.978Z,6.43
2022-09-28T04:36:01.157Z,6.44
2022-09-28T04:38:51.366Z,6.48
2022-09-28T04:41:18.209Z,6.51
2022-09-28T04:43:47.975Z,6.55
2022-09-28T04:46:17.122Z,6.59
2022-09-28T04:48:54.273Z,6.58
2022-09-28T04:51:42.428Z,6.58
2022-09-28T04:54:10.652Z,6.60
2022-09-28T04:56:38.798Z,6.61
2022-09-28T04:59:07.428Z,6.61
2022-09-28T05:01:37.798Z,6.61
2022-09-28T05:04:26.157Z,6.63
2022-09-28T05:07:18.612Z,6.64
2022-09-28T05:09:46.776Z,6.69
2022-09-28T05:12:16.504Z,6.66
2022-09-28T05:14:44.654Z,6.68
2022-09-28T05:17:12.796Z,6.68
2022-09-28T05:19:59.185Z,6.65
2022-09-28T05:22:28.881Z,6.68
2022-09-28T05:24:58.321Z,6.64
2022-09-28T05:27:26.930Z,6.63
2022-09-28T05:30:09.014Z,6.70
2022-09-28T05:32:55.660Z,6.71
2022-09-28T05:35:30.896Z,6.72
2022-09-28T05:38:03.629Z,6.69
2022-09-28T05:40:32.365Z,6.70
2022-09-28T05:43:02.029Z,6.64
2022-09-28T05:45:30.694Z,6.66
2022-09-28T05:47:58.896Z,6.64
2022-09-28T05:50:27.213Z,6.69
2022-09-28T05:53:04.993Z,6.72
2022-09-28T05:55:33.570Z,6.66
2022-09-28T05:58:02.077Z,6.64
2022-09-28T06:00:30.762Z,6.67
2022-09-28T06:03:00.100Z,6.66
2022-09-28T06:05:29.320Z,6.60
2022-09-28T06:07:58.266Z,6.61
2022-09-28T06:10:28.459Z,6.58
2022-09-28T06:13:00.404Z,6.56
2022-09-28T06:15:29.274Z,6.59
2022-09-28T06:17:58.940Z,6.59
2022-09-28T06:20:44.041Z,6.64
2022-09-28T06:23:19.277Z,6.71
2022-09-28T06:25:48.930Z,6.72
2022-09-28T06:28:17.751Z,6.73
2022-09-28T06:30:48.254Z,6.79
2022-09-28T06:33:19.208Z,6.83
2022-09-28T06:35:48.045Z,6.83
2022-09-28T06:38:16.384Z,6.79
2022-09-28T06:40:44.662Z,6.74
2022-09-28T06:43:15.460Z,6.80
2022-09-28T06:46:03.969Z,6.88
2022-09-28T06:48:51.186Z,6.93
2022-09-28T06:51:25.069Z,6.94
2022-09-28T06:54:02.165Z,6.98
2022-09-28T06:56:50.647Z,7.01
2022-09-28T06:59:22.937Z,7.11
2022-09-28T07:01:52.297Z,7.15
2022-09-28T07:04:42.090Z,7.11
2022-09-28T07:07:28.691Z,7.16
2022-09-28T07:10:17.286Z,7.16
2022-09-28T07:13:04.849Z,7.19
2022-09-28T07:15:47.635Z,7.20
2022-09-28T07:18:18.744Z,7.24
2022-09-28T07:20:53.540Z,7.27
2022-09-28T07:23:22.983Z,7.33
2022-09-28T07:26:09.677Z,7.40
2022-09-28T07:28:58.056Z,7.51
2022-09-28T07:31:47.976Z,7.56
2022-09-28T07:34:43.864Z,7.61
2022-09-28T07:37:26.665Z,7.63
2022-09-28T07:40:12.903Z,7.61
2022-09-28T07:42:41.725Z,7.64
2022-09-28T07:45:11.905Z,7.76
2022-09-28T07:47:41.579Z,7.80
2022-09-28T07:50:28.029Z,7.91
2022-09-28T07:53:04.568Z,7.95
2022-09-28T07:55:42.556Z,8.00
2022-09-28T07:58:34.041Z,7.95
2022-09-28T08:01:21.693Z,8.01
2022-09-28T08:03:56.386Z,8.05
2022-09-28T08:06:25.289Z,8.07
2022-09-28T08:08:56.345Z,8.06
2022-09-28T08:11:33.375Z,8.19
2022-09-28T08:14:21.071Z,8.25
2022-09-28T08:17:16.205Z,8.40
2022-09-28T08:20:12.357Z,8.45
2022-09-28T08:22:40.578Z,8.50
2022-09-28T08:25:10.428Z,8.62
2022-09-28T08:27:38.609Z,8.64
2022-09-28T08:30:08.824Z,8.53
2022-09-28T08:32:52.887Z,8.53
2022-09-28T08:35:41.889Z,8.51
2022-09-28T08:38:17.039Z,8.50
2022-09-28T08:41:26.373Z,8.50
2022-09-28T08:44:23.748Z,8.50
2022-09-28T08:47:34.727Z,8.51
2022-09-28T08:50:18.869Z,8.55
2022-09-28T08:53:04.652Z,8.62
2022-09-28T08:55:51.442Z,8.71
2022-09-28T08:58:22.010Z,8.80
2022-09-28T09:00:50.851Z,8.85
2022-09-28T09:03:22.496Z,8.99
2022-09-28T09:06:18.150Z,9.10
2022-09-28T09:09:02.019Z,9.23
2022-09-28T09:11:38.390Z,9.35
2022-09-28T09:14:19.355Z,9.38
2022-09-28T09:16:59.951Z,9.40
2022-09-28T09:20:01.673Z,9.30
2022-09-28T09:22:57.123Z,9.12
2022-09-28T09:25:28.205Z,9.16
2022-09-28T09:28:45.814Z,9.18
2022-09-28T09:31:22.807Z,9.19
2022-09-28T09:34:07.106Z,9.32
2022-09-28T09:37:03.236Z,9.53
2022-09-28T09:40:10.321Z,9.71
2022-09-28T09:43:07.415Z,9.92
2022-09-28T09:45:57.703Z,9.76
2022-09-28T09:48:36.675Z,9.57
2022-09-28T09:51:07.758Z,9.57
2022-09-28T09:53:38.821Z,9.45
2022-09-28T09:56:14.489Z,9.44
2022-09-28T09:59:04.598Z,9.58
2022-09-28T10:01:39.898Z,9.78
2022-09-28T10:04:22.322Z,9.75
2022-09-28T10:06:51.945Z,9.95
2022-09-28T10:09:22.763Z,10.24
2022-09-28T10:11:52.039Z,10.51
2022-09-28T10:14:23.214Z,10.67
2022-09-28T10:17:02.361Z,10.72
2022-09-28T10:19:49.337Z,10.63
2022-09-28T10:22:46.896Z,10.69
2022-09-28T10:25:18.453Z,10.69
2022-09-28T10:27:49.354Z,10.85
2022-09-28T10:30:19.969Z,11.29
2022-09-28T10:32:49.049Z,11.68
2022-09-28T10:35:24.367Z,11.39
2022-09-28T10:38:07.759Z,10.67
2022-09-28T10:40:46.293Z,9.99
2022-09-28T10:43:20.071Z,9.41
2022-09-28T10:45:51.200Z,9.13
2022-09-28T10:48:20.633Z,8.92
2022-09-28T10:50:59.701Z,8.86
2022-09-28T10:53:27.967Z,8.89
2022-09-28T10:56:06.331Z,8.86
2022-09-28T10:58:38.346Z,8.79
2022-09-28T11:01:10.941Z,8.78
2022-09-28T11:03:49.245Z,8.80
2022-09-28T11:06:25.352Z,8.77
2022-09-28T11:08:53.713Z,8.68
2022-09-28T11:11:22.201Z,8.62
2022-09-28T11:14:01.600Z,8.56
2022-09-28T11:16:36.245Z,8.48
2022-09-28T11:19:07.222Z,8.39
2022-09-28T11:21:42.765Z,8.34
2022-09-28T11:24:20.088Z,8.45
2022-09-28T11:26:52.591Z,8.63
2022-09-28T11:29:26.856Z,8.77
2022-09-28T11:32:16.085Z,8.87
2022-09-28T11:35:24.487Z,8.96
2022-09-28T11:38:00.958Z,8.94
2022-09-28T11:40:52.210Z,8.90
2022-09-28T11:43:28.046Z,8.88
2022-09-28T11:45:59.323Z,8.80
2022-09-28T11:48:31.091Z,8.86
2022-09-28T11:51:01.293Z,8.99
2022-09-28T11:53:31.539Z,9.23
2022-09-28T11:56:08.972Z,9.53
2022-09-28T11:58:40.829Z,9.67
2022-09-28T12:01:18.957Z,9.75
2022-09-28T12:04:16.165Z,9.73
2022-09-28T12:06:47.229Z,9.65
2022-09-28T12:09:22.624Z,9.47
2022-09-28T12:12:02.069Z,9.26
2022-09-28T12:14:50.472Z,8.96
2022-09-28T12:17:22.622Z,8.87
2022-09-28T12:19:55.442Z,8.93
2022-09-28T12:22:25.514Z,9.19
2022-09-28T12:24:55.295Z,9.29
2022-09-28T12:27:26.124Z,9.36
2022-09-28T12:29:56.929Z,9.48
2022-09-28T12:32:29.569Z,9.45
2022-09-28T12:34:59.145Z,9.53
2022-09-28T12:37:36.704Z,9.59
2022-09-28T12:40:22.658Z,9.64
2022-09-28T12:43:01.280Z,9.65
2022-09-28T12:46:06.797Z,9.61
2022-09-28T12:48:42.180Z,9.68
2022-09-28T12:51:16.841Z,9.75
2022-09-28T12:53:55.169Z,9.82
2022-09-28T12:56:25.820Z,9.93
2022-09-28T12:59:01.544Z,9.94
2022-09-28T13:01:51.460Z,9.95
2022-09-28T13:04:27.382Z,9.99
2022-09-28T13:07:03.821Z,9.95
2022-09-28T13:09:34.345Z,9.89
2022-09-28T13:12:13.218Z,9.72
2022-09-28T13:15:13.350Z,9.72
2022-09-28T13:17:46.557Z,9.70
2022-09-28T13:20:24.019Z,9.65
2022-09-28T13:22:58.677Z,9.66
2022-09-28T13:25:28.272Z,9.63
2022-09-28T13:27:58.127Z,9.57
2022-09-28T13:30:27.089Z,9.60
2022-09-28T13:32:56.321Z,9.65
2022-09-28T13:35:24.560Z,9.71
2022-09-28T13:38:31.556Z,9.75
2022-09-28T13:41:35.463Z,9.78
2022-09-28T13:44:29.509Z,9.88
2022-09-28T13:47:04.358Z,9.93
2022-09-28T13:49:37.223Z,9.88
2022-09-28T13:52:06.384Z,9.85
2022-09-28T13:54:53.342Z,9.92
2022-09-28T13:57:25.485Z,10.04
2022-09-28T14:00:09.104Z,10.15
2022-09-28T14:02:42.409Z,10.21
2022-09-28T14:05:43.432Z,10.27
2022-09-28T14:08:21.318Z,10.34
2022-09-28T14:10:51.762Z,10.53
2022-09-28T14:14:00.454Z,10.59
2022-09-28T14:16:31.165Z,10.63
2022-09-28T14:19:01.464Z,10.55
2022-09-28T14:22:01.432Z,10.29
2022-09-28T14:24:36.864Z,9.97
2022-09-28T14:27:32.516Z,9.87
2022-09-28T14:30:17.678Z,9.86
2022-09-28T14:32:50.429Z,9.78
2022-09-28T14:35:29.740Z,9.66
2022-09-28T14:38:17.969Z,9.58
2022-09-28T14:41:12.606Z,9.52
2022-09-28T14:44:16.420Z,9.46
2022-09-28T14:46:46.240Z,9.42
2022-09-28T14:49:57.052Z,9.43
2022-09-28T14:52:45.914Z,9.43
2022-09-28T14:55:18.736Z,9.31
2022-09-28T14:57:50.748Z,9.42
2022-09-28T15:00:21.994Z,9.51
2022-09-28T15:02:52.809Z,9.54
2022-09-28T15:05:23.958Z,9.48
2022-09-28T15:07:53.353Z,9.41
2022-09-28T15:10:32.318Z,9.30
2022-09-28T15:13:02.380Z,9.29
2022-09-28T15:15:33.735Z,9.27
2022-09-28T15:18:10.430Z,9.29
2022-09-28T15:20:39.144Z,9.24
2022-09-28T15:23:27.759Z,9.18
2022-09-28T15:25:56.142Z,9.05
2022-09-28T15:28:25.184Z,8.94
2022-09-28T15:30:57.431Z,8.87
2022-09-28T15:33:45.733Z,8.85
2022-09-28T15:36:16.811Z,8.76
2022-09-28T15:38:45.025Z,8.70
2022-09-28T15:41:13.447Z,8.62
2022-09-28T15:43:41.613Z,8.63
2022-09-28T15:46:18.451Z,8.63
2022-09-28T15:48:52.165Z,8.64
2022-09-28T15:51:21.455Z,8.65
2022-09-28T15:53:54.108Z,8.63
2022-09-28T15:56:22.420Z,8.70
2022-09-28T15:59:09.246Z,8.74
2022-09-28T16:01:38.129Z,8.76
2022-09-28T16:04:40.009Z,8.81
2022-09-28T16:07:21.898Z,8.87
2022-09-28T16:10:01.538Z,8.89
2022-09-28T16:12:34.889Z,8.87
2022-09-28T16:15:05.336Z,8.82
2022-09-28T16:17:34.079Z,8.80
2022-09-28T16:20:05.405Z,8.77
2022-09-28T16:22:34.064Z,8.71
2022-09-28T16:25:02.901Z,8.63
2022-09-28T16:27:31.720Z,8.51
2022-09-28T16:30:12.283Z,8.42
2022-09-28T16:32:41.894Z,8.33
2022-09-28T16:35:19.860Z,8.26
2022-09-28T16:37:48.864Z,8.24
2022-09-28T16:40:17.237Z,8.20
2022-09-28T16:42:49.081Z,8.22
2022-09-28T16:45:19.910Z,8.22
2022-09-28T16:47:52.872Z,8.23
2022-09-28T16:50:22.729Z,8.24
2022-09-28T16:53:08.613Z,8.23
2022-09-28T16:55:40.501Z,8.19
2022-09-28T16:58:09.246Z,8.19
2022-09-28T17:00:37.403Z,8.15
2022-09-28T17:03:20.431Z,8.02
2022-09-28T17:05:52.405Z,7.97
2022-09-28T17:08:22.322Z,7.82
2022-09-28T17:11:13.842Z,7.75
2022-09-28T17:13:41.496Z,7.72
2022-09-28T17:16:12.967Z,7.72
2022-09-28T17:18:41.226Z,7.68
2022-09-28T17:21:13.384Z,7.67
2022-09-28T17:23:41.553Z,7.59
2022-09-28T17:26:09.918Z,7.54
2022-09-28T17:28:38.374Z,7.49
2022-09-28T17:31:08.303Z,7.47
2022-09-28T17:33:36.528Z,7.49
2022-09-28T17:36:05.454Z,7.47
2022-09-28T17:38:36.575Z,7.47
2022-09-28T17:41:04.781Z,7.42
2022-09-28T17:43:33.361Z,7.41
2022-09-28T17:46:01.591Z,7.44
2022-09-28T17:48:29.797Z,7.47
2022-09-28T17:51:00.093Z,7.51
2022-09-28T17:53:28.530Z,7.52
2022-09-28T17:55:58.157Z,7.51
2022-09-28T17:58:26.639Z,7.50
2022-09-28T18:00:54.840Z,7.47
2022-09-28T18:03:23.933Z,7.42
2022-09-28T18:05:53.879Z,7.39
2022-09-28T18:08:22.668Z,7.38
2022-09-28T18:10:51.334Z,7.38
2022-09-28T18:13:20.916Z,7.36
2022-09-28T18:15:51.564Z,7.36
2022-09-28T18:18:19.770Z,7.37
2022-09-28T18:20:47.981Z,7.36
2022-09-28T18:23:16.194Z,7.36
2022-09-28T18:25:45.289Z,7.39
2022-09-28T18:28:13.796Z,7.41
2022-09-28T18:30:44.077Z,7.38
2022-09-28T18:33:12.771Z,7.39
2022-09-28T18:35:41.002Z,7.37
2022-09-28T18:38:09.255Z,7.39
2022-09-28T18:40:38.017Z,7.42
2022-09-28T18:43:06.207Z,7.43
2022-09-28T18:45:34.795Z,7.42
2022-09-28T18:48:04.611Z,7.42
2022-09-28T18:50:32.780Z,7.40
2022-09-28T18:53:11.552Z,7.43
2022-09-28T18:55:40.587Z,7.44
2022-09-28T18:58:09.070Z,7.44
2022-09-28T19:00:38.761Z,7.46
2022-09-28T19:03:08.466Z,7.43
2022-09-28T19:05:36.754Z,7.40
2022-09-28T19:08:05.204Z,7.34
2022-09-28T19:10:33.413Z,7.33
2022-09-28T19:13:01.591Z,7.28
2022-09-28T19:15:29.862Z,7.24
2022-09-28T19:17:58.163Z,7.21
2022-09-28T19:20:27.791Z,7.21
2022-09-28T19:22:55.950Z,7.19
2022-09-28T19:25:24.113Z,7.19
2022-09-28T19:27:52.279Z,7.19
2022-09-28T19:30:20.504Z,7.17
2022-09-28T19:32:48.695Z,7.14
2022-09-28T19:35:17.374Z,7.13
2022-09-28T19:37:46.987Z,7.13
2022-09-28T19:40:15.215Z,7.11
2022-09-28T19:42:43.400Z,7.08
2022-09-28T19:45:11.780Z,7.05
2022-09-28T19:47:40.251Z,7.05
2022-09-28T19:50:10.332Z,7.06
2022-09-28T19:52:38.489Z,7.14
2022-09-28T19:55:09.193Z,7.11
2022-09-28T19:57:37.370Z,7.12
2022-09-28T20:00:06.845Z,7.11
2022-09-28T20:02:35.215Z,7.09
2022-09-28T20:05:03.471Z,7.11
2022-09-28T20:07:33.420Z,7.10
2022-09-28T20:10:01.617Z,7.08
2022-09-28T20:12:31.197Z,7.10
2022-09-28T20:14:59.377Z,7.07
2022-09-28T20:17:27.580Z,7.07
2022-09-28T20:19:55.798Z,7.06
2022-09-28T20:22:24.030Z,6.99
2022-09-28T20:24:52.208Z,6.95
2022-09-28T20:27:24.351Z,6.96
2022-09-28T20:29:55.817Z,6.93
2022-09-28T20:32:23.994Z,6.91
2022-09-28T20:34:52.203Z,6.89
2022-09-28T20:37:20.402Z,6.87
2022-09-28T20:39:48.924Z,6.79
2022-09-28T20:42:17.425Z,6.76
2022-09-28T20:44:45.973Z,6.73
2022-09-28T20:47:15.524Z,6.72
2022-09-28T20:49:44.484Z,6.65
2022-09-28T20:52:12.672Z,6.66
2022-09-28T20:54:41.248Z,6.68
2022-09-28T20:57:17.592Z,6.69
2022-09-28T20:59:47.177Z,6.68
2022-09-28T21:02:18.910Z,6.70
2022-09-28T21:04:47.492Z,6.73
2022-09-28T21:07:15.685Z,6.72
2022-09-28T21:09:44.138Z,6.75
2022-09-28T21:12:12.898Z,6.75
2022-09-28T21:14:41.060Z,6.74
2022-09-28T21:17:09.289Z,6.74
2022-09-28T21:19:38.901Z,6.78
2022-09-28T21:22:07.686Z,6.75
2022-09-28T21:24:35.860Z,6.73
2022-09-28T21:27:04.028Z,6.68
2022-09-28T21:29:32.194Z,6.63
2022-09-28T21:32:00.399Z,6.62
2022-09-28T21:34:28.826Z,6.54
2022-09-28T21:36:58.437Z,6.50
2022-09-28T21:39:26.568Z,6.43
2022-09-28T21:41:54.812Z,6.40
2022-09-28T21:44:23.082Z,6.30
2022-09-28T21:46:51.287Z,6.21
2022-09-28T21:49:19.754Z,6.19
2022-09-28T21:51:48.017Z,6.17
2022-09-28T21:54:17.631Z,6.11
2022-09-28T21:56:45.812Z,6.07
2022-09-28T21:59:13.947Z,6.07
2022-09-28T22:01:42.912Z,6.04
2022-09-28T22:04:11.179Z,5.99
2022-09-28T22:06:39.847Z,6.01
2022-09-28T22:09:08.096Z,5.92
2022-09-28T22:11:37.755Z,5.94
2022-09-28T22:14:05.916Z,5.96
2022-09-28T22:16:34.409Z,5.94
2022-09-28T22:19:02.696Z,5.87
2022-09-28T22:21:31.949Z,5.81
2022-09-28T22:24:01.183Z,5.81
2022-09-28T22:26:29.612Z,5.74
2022-09-28T22:29:00.180Z,5.70
2022-09-28T22:31:29.127Z,5.66
2022-09-28T22:33:57.524Z,5.62
2022-09-28T22:36:25.984Z,5.60
2022-09-28T22:38:54.895Z,5.53
2022-09-28T22:41:23.330Z,5.48
2022-09-28T22:43:52.981Z,5.42
2022-09-28T22:46:23.463Z,5.36
2022-09-28T22:48:52.876Z,5.32
2022-09-28T22:51:21.152Z,5.25
2022-09-28T22:53:49.354Z,5.18
2022-09-28T22:56:19.179Z,5.14
2022-09-28T22:58:47.600Z,5.09
2022-09-28T23:01:17.349Z,5.05
2022-09-28T23:03:46.980Z,4.99
2022-09-28T23:06:16.143Z,4.95
2022-09-28T23:08:44.649Z,4.92
2022-09-28T23:11:13.149Z,4.88
2022-09-28T23:13:41.319Z,4.85
2022-09-28T23:16:11.035Z,4.86
2022-09-28T23:18:40.901Z,4.84
2022-09-28T23:21:12.320Z,4.76
2022-09-28T23:23:40.780Z,4.75
2022-09-28T23:26:12.666Z,4.69
2022-09-28T23:28:40.873Z,4.64
2022-09-28T23:31:10.151Z,4.60
2022-09-28T23:33:38.353Z,4.57
2022-09-28T23:36:07.194Z,4.52
2022-09-28T23:38:37.059Z,4.47
2022-09-28T23:41:05.540Z,4.41
2022-09-28T23:43:33.801Z,4.39
2022-09-28T23:46:02.041Z,4.33
2022-09-28T23:48:30.322Z,4.30
2022-09-28T23:50:58.488Z,4.27
2022-09-28T23:53:27.076Z,4.22
2022-09-28T23:55:56.769Z,4.19
2022-09-28T23:58:25.800Z,4.14
